sensor_id;sensor_type;location;lat;lon;timestamp;temperature;humidity
29007;DHT22;16104;48.642;9.008;2022-10-16T01:02:15;18.40;68.10
29007;DHT22;16104;48.642;9.008;2022-10-16T02:03:25;18.10;69.00
29007;DHT22;16104;48.642;9.008;2022-10-16T02:08:23;18.10;68.70
29007;DHT22;16104;48.642;9.008;2022-10-16T02:13:33;18.20;68.90
29007;DHT22;16104;48.642;9.008;2022-10-16T03:04:19;18.30;69.30
29007;DHT22;16104;48.642;9.008;2022-10-16T03:09:15;18.30;68.50
29007;DHT22;16104;48.642;9.008;2022-10-16T03:14:10;18.30;68.40
29007;DHT22;16104;48.642;9.008;2022-10-16T03:19:06;18.30;68.40
29007;DHT22;16104;48.642;9.008;2022-10-16T03:24:01;18.30;68.40
29007;DHT22;16104;48.642;9.008;2022-10-16T03:28:57;18.30;68.30
29007;DHT22;16104;48.642;9.008;2022-10-16T03:33:52;18.30;68.30
29007;DHT22;16104;48.642;9.008;2022-10-16T03:38:48;18.30;68.30
29007;DHT22;16104;48.642;9.008;2022-10-16T03:43:43;18.30;68.20
29007;DHT22;16104;48.642;9.008;2022-10-16T03:48:39;18.30;68.20
29007;DHT22;16104;48.642;9.008;2022-10-16T03:53:35;18.30;68.30
29007;DHT22;16104;48.642;9.008;2022-10-16T03:58:30;18.30;68.30
29007;DHT22;16104;48.642;9.008;2022-10-16T04:03:26;18.30;68.30
29007;DHT22;16104;48.642;9.008;2022-10-16T04:08:21;18.30;68.30
29007;DHT22;16104;48.642;9.008;2022-10-16T04:13:17;18.20;68.20
29007;DHT22;16104;48.642;9.008;2022-10-16T04:18:13;18.20;68.20
29007;DHT22;16104;48.642;9.008;2022-10-16T04:23:08;18.20;68.30
29007;DHT22;16104;48.642;9.008;2022-10-16T04:28:04;18.20;68.40
29007;DHT22;16104;48.642;9.008;2022-10-16T04:32:59;18.20;68.40
29007;DHT22;16104;48.642;9.008;2022-10-16T04:37:57;18.20;68.50
29007;DHT22;16104;48.642;9.008;2022-10-16T04:42:53;18.20;68.50
29007;DHT22;16104;48.642;9.008;2022-10-16T04:47:48;18.20;68.50
29007;DHT22;16104;48.642;9.008;2022-10-16T04:52:44;18.20;68.50
29007;DHT22;16104;48.642;9.008;2022-10-16T04:57:40;18.20;68.50
29007;DHT22;16104;48.642;9.008;2022-10-16T05:02:36;18.20;68.50
29007;DHT22;16104;48.642;9.008;2022-10-16T05:07:31;18.20;68.50
29007;DHT22;16104;48.642;9.008;2022-10-16T05:12:27;18.20;68.40
29007;DHT22;16104;48.642;9.008;2022-10-16T05:17:22;18.20;68.30
29007;DHT22;16104;48.642;9.008;2022-10-16T05:22:18;18.20;68.20
29007;DHT22;16104;48.642;9.008;2022-10-16T05:27:14;18.20;68.30
29007;DHT22;16104;48.642;9.008;2022-10-16T05:32:16;18.10;68.20
29007;DHT22;16104;48.642;9.008;2022-10-16T05:37:12;18.10;68.20
29007;DHT22;16104;48.642;9.008;2022-10-16T05:42:07;18.10;68.30
29007;DHT22;16104;48.642;9.008;2022-10-16T05:47:03;18.10;68.50
29007;DHT22;16104;48.642;9.008;2022-10-16T05:51:58;18.10;68.50
29007;DHT22;16104;48.642;9.008;2022-10-16T05:56:54;18.10;68.50
29007;DHT22;16104;48.642;9.008;2022-10-16T06:01:49;18.10;68.70
29007;DHT22;16104;48.642;9.008;2022-10-16T06:06:45;18.10;68.60
29007;DHT22;16104;48.642;9.008;2022-10-16T06:11:40;18.10;68.60
29007;DHT22;16104;48.642;9.008;2022-10-16T06:16:37;18.10;68.60
29007;DHT22;16104;48.642;9.008;2022-10-16T06:21:33;18.10;68.60
29007;DHT22;16104;48.642;9.008;2022-10-16T06:26:30;18.20;68.70
29007;DHT22;16104;48.642;9.008;2022-10-16T06:31:26;18.10;68.70
29007;DHT22;16104;48.642;9.008;2022-10-16T06:36:25;18.20;68.80
29007;DHT22;16104;48.642;9.008;2022-10-16T06:41:22;18.20;69.00
29007;DHT22;16104;48.642;9.008;2022-10-16T06:46:21;18.20;69.10
29007;DHT22;16104;48.642;9.008;2022-10-16T06:51:21;18.30;68.90
29007;DHT22;16104;48.642;9.008;2022-10-16T06:56:25;18.30;68.90
29007;DHT22;16104;48.642;9.008;2022-10-16T07:01:23;18.30;68.80
29007;DHT22;16104;48.642;9.008;2022-10-16T07:06:21;18.40;68.70
29007;DHT22;16104;48.642;9.008;2022-10-16T07:11:18;18.40;68.70
29007;DHT22;16104;48.642;9.008;2022-10-16T07:16:17;18.50;68.80
29007;DHT22;16104;48.642;9.008;2022-10-16T07:21:18;18.60;68.90
29007;DHT22;16104;48.642;9.008;2022-10-16T07:26:14;18.60;68.60
29007;DHT22;16104;48.642;9.008;2022-10-16T07:31:13;18.60;68.60
29007;DHT22;16104;48.642;9.008;2022-10-16T07:36:09;18.70;68.30
29007;DHT22;16104;48.642;9.008;2022-10-16T07:41:10;18.70;68.50
29007;DHT22;16104;48.642;9.008;2022-10-16T07:46:06;18.70;68.30
29007;DHT22;16104;48.642;9.008;2022-10-16T07:51:06;18.80;68.40
29007;DHT22;16104;48.642;9.008;2022-10-16T07:56:04;18.80;68.40
29007;DHT22;16104;48.642;9.008;2022-10-16T08:01:04;18.90;68.30
29007;DHT22;16104;48.642;9.008;2022-10-16T08:06:02;18.90;68.20
29007;DHT22;16104;48.642;9.008;2022-10-16T08:10:58;19.00;68.20
29007;DHT22;16104;48.642;9.008;2022-10-16T08:15:54;19.00;68.20
29007;DHT22;16104;48.642;9.008;2022-10-16T08:20:58;19.10;68.20
29007;DHT22;16104;48.642;9.008;2022-10-16T08:25:55;19.20;68.20
29007;DHT22;16104;48.642;9.008;2022-10-16T08:30:50;19.30;68.00
29007;DHT22;16104;48.642;9.008;2022-10-16T08:35:52;19.40;67.80
29007;DHT22;16104;48.642;9.008;2022-10-16T08:40:48;19.50;67.40
29007;DHT22;16104;48.642;9.008;2022-10-16T08:50:54;19.70;66.30
29007;DHT22;16104;48.642;9.008;2022-10-16T08:55:51;19.70;66.40
29007;DHT22;16104;48.642;9.008;2022-10-16T09:00:51;19.80;66.30
29007;DHT22;16104;48.642;9.008;2022-10-16T09:06:04;19.90;66.30
29007;DHT22;16104;48.642;9.008;2022-10-16T09:11:44;20.00;66.10
29007;DHT22;16104;48.642;9.008;2022-10-16T09:16:42;20.10;65.70
29007;DHT22;16104;48.642;9.008;2022-10-16T09:21:41;20.20;65.60
29007;DHT22;16104;48.642;9.008;2022-10-16T09:26:38;20.30;65.70
29007;DHT22;16104;48.642;9.008;2022-10-16T09:31:36;20.40;65.90
29007;DHT22;16104;48.642;9.008;2022-10-16T09:36:51;20.60;64.90
29007;DHT22;16104;48.642;9.008;2022-10-16T09:41:46;20.80;64.20
29007;DHT22;16104;48.642;9.008;2022-10-16T09:46:42;21.00;64.80
29007;DHT22;16104;48.642;9.008;2022-10-16T09:51:37;21.20;63.90
29007;DHT22;16104;48.642;9.008;2022-10-16T09:56:35;21.50;63.80
29007;DHT22;16104;48.642;9.008;2022-10-16T10:01:36;21.70;62.30
29007;DHT22;16104;48.642;9.008;2022-10-16T10:06:36;22.10;61.50
29007;DHT22;16104;48.642;9.008;2022-10-16T10:11:39;22.40;60.80
29007;DHT22;16104;48.642;9.008;2022-10-16T10:16:35;22.60;60.00
29007;DHT22;16104;48.642;9.008;2022-10-16T10:21:33;22.80;60.40
29007;DHT22;16104;48.642;9.008;2022-10-16T10:26:31;23.10;59.50
29007;DHT22;16104;48.642;9.008;2022-10-16T11:07:51;24.60;55.80
29007;DHT22;16104;48.642;9.008;2022-10-16T11:12:52;24.80;55.10
29007;DHT22;16104;48.642;9.008;2022-10-16T11:23:08;25.00;54.60
29007;DHT22;16104;48.642;9.008;2022-10-16T11:28:19;25.10;55.20
29007;DHT22;16104;48.642;9.008;2022-10-16T11:33:26;25.30;53.90
29007;DHT22;16104;48.642;9.008;2022-10-16T11:38:34;25.50;54.20
29007;DHT22;16104;48.642;9.008;2022-10-16T11:43:42;25.70;53.30
29007;DHT22;16104;48.642;9.008;2022-10-16T11:48:48;25.90;52.20
29007;DHT22;16104;48.642;9.008;2022-10-16T11:59:18;26.40;53.30
29007;DHT22;16104;48.642;9.008;2022-10-16T12:09:25;27.00;53.00
29007;DHT22;16104;48.642;9.008;2022-10-16T12:19:26;27.70;51.10
29007;DHT22;16104;48.642;9.008;2022-10-16T12:24:43;27.90;50.40
29007;DHT22;16104;48.642;9.008;2022-10-16T12:29:40;28.10;51.60
29007;DHT22;16104;48.642;9.008;2022-10-16T12:34:41;28.10;49.20
29007;DHT22;16104;48.642;9.008;2022-10-16T12:39:38;28.20;48.40
29007;DHT22;16104;48.642;9.008;2022-10-16T12:44:35;28.20;47.30
29007;DHT22;16104;48.642;9.008;2022-10-16T12:49:36;28.00;46.30
29007;DHT22;16104;48.642;9.008;2022-10-16T12:54:37;27.90;46.60
29007;DHT22;16104;48.642;9.008;2022-10-16T13:05:06;27.60;46.30
29007;DHT22;16104;48.642;9.008;2022-10-16T13:15:37;27.60;46.30
29007;DHT22;16104;48.642;9.008;2022-10-16T13:20:52;27.80;47.50
29007;DHT22;16104;48.642;9.008;2022-10-16T13:26:01;27.90;46.10
29007;DHT22;16104;48.642;9.008;2022-10-16T13:31:04;28.00;45.30
29007;DHT22;16104;48.642;9.008;2022-10-16T13:36:01;28.10;46.50
29007;DHT22;16104;48.642;9.008;2022-10-16T13:41:04;28.20;45.90
29007;DHT22;16104;48.642;9.008;2022-10-16T13:46:15;28.10;45.30
29007;DHT22;16104;48.642;9.008;2022-10-16T13:56:13;27.90;47.00
29007;DHT22;16104;48.642;9.008;2022-10-16T14:01:42;27.80;47.00
29007;DHT22;16104;48.642;9.008;2022-10-16T14:06:44;27.80;46.60
29007;DHT22;16104;48.642;9.008;2022-10-16T14:11:51;27.70;47.40
29007;DHT22;16104;48.642;9.008;2022-10-16T14:16:48;27.70;46.90
29007;DHT22;16104;48.642;9.008;2022-10-16T14:21:44;27.70;46.70
29007;DHT22;16104;48.642;9.008;2022-10-16T14:26:44;27.50;46.20
29007;DHT22;16104;48.642;9.008;2022-10-16T14:31:40;27.50;47.00
29007;DHT22;16104;48.642;9.008;2022-10-16T14:36:36;27.40;46.90
29007;DHT22;16104;48.642;9.008;2022-10-16T14:41:35;27.40;46.30
29007;DHT22;16104;48.642;9.008;2022-10-16T14:46:37;27.40;47.00
29007;DHT22;16104;48.642;9.008;2022-10-16T14:51:34;27.40;46.80
29007;DHT22;16104;48.642;9.008;2022-10-16T14:56:34;27.40;46.50
29007;DHT22;16104;48.642;9.008;2022-10-16T15:01:30;27.40;46.90
29007;DHT22;16104;48.642;9.008;2022-10-16T15:06:26;27.40;47.30
29007;DHT22;16104;48.642;9.008;2022-10-16T15:11:21;27.50;47.40
29007;DHT22;16104;48.642;9.008;2022-10-16T15:16:17;27.60;46.90
29007;DHT22;16104;48.642;9.008;2022-10-16T15:21:39;27.60;47.10
29007;DHT22;16104;48.642;9.008;2022-10-16T15:26:35;27.60;47.20
29007;DHT22;16104;48.642;9.008;2022-10-16T15:31:31;27.70;48.00
29007;DHT22;16104;48.642;9.008;2022-10-16T15:36:34;27.70;47.20
29007;DHT22;16104;48.642;9.008;2022-10-16T15:41:31;27.70;46.80
29007;DHT22;16104;48.642;9.008;2022-10-16T15:46:27;27.60;47.30
29007;DHT22;16104;48.642;9.008;2022-10-16T15:51:25;27.50;47.10
29007;DHT22;16104;48.642;9.008;2022-10-16T15:56:23;27.40;47.20
29007;DHT22;16104;48.642;9.008;2022-10-16T16:01:21;27.30;47.40
29007;DHT22;16104;48.642;9.008;2022-10-16T16:06:16;27.10;48.30
29007;DHT22;16104;48.642;9.008;2022-10-16T16:11:15;27.00;48.10
29007;DHT22;16104;48.642;9.008;2022-10-16T16:16:13;26.80;48.30
29007;DHT22;16104;48.642;9.008;2022-10-16T16:21:13;26.60;48.40
29007;DHT22;16104;48.642;9.008;2022-10-16T16:26:15;26.50;48.40
29007;DHT22;16104;48.642;9.008;2022-10-16T16:31:16;26.30;48.70
29007;DHT22;16104;48.642;9.008;2022-10-16T16:36:12;26.10;48.90
29007;DHT22;16104;48.642;9.008;2022-10-16T16:41:15;25.90;48.90
29007;DHT22;16104;48.642;9.008;2022-10-16T16:46:11;25.80;49.30
29007;DHT22;16104;48.642;9.008;2022-10-16T16:51:09;25.60;49.40
29007;DHT22;16104;48.642;9.008;2022-10-16T16:56:05;25.40;49.60
29007;DHT22;16104;48.642;9.008;2022-10-16T17:01:02;25.20;49.80
29007;DHT22;16104;48.642;9.008;2022-10-16T17:05:58;25.00;50.10
29007;DHT22;16104;48.642;9.008;2022-10-16T17:10:54;24.80;50.40
29007;DHT22;16104;48.642;9.008;2022-10-16T17:15:51;24.60;50.70
29007;DHT22;16104;48.642;9.008;2022-10-16T17:20:48;24.40;50.80
29007;DHT22;16104;48.642;9.008;2022-10-16T17:25:44;24.20;51.00
29007;DHT22;16104;48.642;9.008;2022-10-16T17:30:40;24.10;51.40
29007;DHT22;16104;48.642;9.008;2022-10-16T17:35:38;23.90;51.70
29007;DHT22;16104;48.642;9.008;2022-10-16T17:40:34;23.70;51.90
29007;DHT22;16104;48.642;9.008;2022-10-16T17:45:30;23.60;52.10
29007;DHT22;16104;48.642;9.008;2022-10-16T17:50:26;23.40;52.40
29007;DHT22;16104;48.642;9.008;2022-10-16T17:55:21;23.30;52.50
29007;DHT22;16104;48.642;9.008;2022-10-16T18:00:17;23.10;52.80
29007;DHT22;16104;48.642;9.008;2022-10-16T18:05:12;23.00;53.10
29007;DHT22;16104;48.642;9.008;2022-10-16T18:10:08;22.80;53.30
29007;DHT22;16104;48.642;9.008;2022-10-16T18:15:05;22.70;53.90
29007;DHT22;16104;48.642;9.008;2022-10-16T18:20:01;22.60;54.00
29007;DHT22;16104;48.642;9.008;2022-10-16T18:24:56;22.50;54.30
29007;DHT22;16104;48.642;9.008;2022-10-16T18:29:52;22.30;54.50
29007;DHT22;16104;48.642;9.008;2022-10-16T18:34:52;22.20;54.80
29007;DHT22;16104;48.642;9.008;2022-10-16T18:39:48;22.10;54.90
29007;DHT22;16104;48.642;9.008;2022-10-16T18:44:44;22.00;55.20
29007;DHT22;16104;48.642;9.008;2022-10-16T18:49:39;21.80;55.30
29007;DHT22;16104;48.642;9.008;2022-10-16T18:54:35;21.70;55.40
29007;DHT22;16104;48.642;9.008;2022-10-16T18:59:31;21.60;55.60
29007;DHT22;16104;48.642;9.008;2022-10-16T19:04:27;21.50;55.70
29007;DHT22;16104;48.642;9.008;2022-10-16T19:09:23;21.40;55.90
29007;DHT22;16104;48.642;9.008;2022-10-16T19:14:19;21.30;56.10
29007;DHT22;16104;48.642;9.008;2022-10-16T19:19:16;21.20;56.30
29007;DHT22;16104;48.642;9.008;2022-10-16T19:24:14;21.10;56.40
29007;DHT22;16104;48.642;9.008;2022-10-16T19:29:10;21.00;56.70
29007;DHT22;16104;48.642;9.008;2022-10-16T19:34:06;20.90;57.00
29007;DHT22;16104;48.642;9.008;2022-10-16T19:39:05;20.90;57.00
29007;DHT22;16104;48.642;9.008;2022-10-16T19:44:02;20.80;57.10
29007;DHT22;16104;48.642;9.008;2022-10-16T19:49:00;20.70;57.40
29007;DHT22;16104;48.642;9.008;2022-10-16T19:53:59;20.60;57.50
29007;DHT22;16104;48.642;9.008;2022-10-16T19:58:56;20.50;57.70
29007;DHT22;16104;48.642;9.008;2022-10-16T20:03:52;20.40;57.90
29007;DHT22;16104;48.642;9.008;2022-10-16T20:08:49;20.30;57.90
29007;DHT22;16104;48.642;9.008;2022-10-16T20:13:48;20.20;58.20
29007;DHT22;16104;48.642;9.008;2022-10-16T20:18:45;20.10;58.30
29007;DHT22;16104;48.642;9.008;2022-10-16T20:23:41;20.00;58.60
29007;DHT22;16104;48.642;9.008;2022-10-16T20:28:38;19.90;58.70
29007;DHT22;16104;48.642;9.008;2022-10-16T20:33:34;19.70;58.90
29007;DHT22;16104;48.642;9.008;2022-10-16T20:38:30;19.70;59.00
29007;DHT22;16104;48.642;9.008;2022-10-16T20:43:26;19.70;59.10
29007;DHT22;16104;48.642;9.008;2022-10-16T20:48:21;19.70;59.30
29007;DHT22;16104;48.642;9.008;2022-10-16T20:53:17;19.60;59.30
29007;DHT22;16104;48.642;9.008;2022-10-16T20:58:12;19.60;59.40
29007;DHT22;16104;48.642;9.008;2022-10-16T21:03:09;19.60;59.60
29007;DHT22;16104;48.642;9.008;2022-10-16T21:08:05;19.50;59.70
29007;DHT22;16104;48.642;9.008;2022-10-16T21:13:00;19.50;59.70
29007;DHT22;16104;48.642;9.008;2022-10-16T21:17:56;19.50;59.70
29007;DHT22;16104;48.642;9.008;2022-10-16T21:22:51;19.50;59.70
29007;DHT22;16104;48.642;9.008;2022-10-16T21:27:47;19.40;59.60
29007;DHT22;16104;48.642;9.008;2022-10-16T21:32:42;19.50;59.70
29007;DHT22;16104;48.642;9.008;2022-10-16T21:37:38;19.40;59.60
29007;DHT22;16104;48.642;9.008;2022-10-16T21:42:33;19.40;59.60
29007;DHT22;16104;48.642;9.008;2022-10-16T21:47:29;19.40;59.50
29007;DHT22;16104;48.642;9.008;2022-10-16T21:52:24;19.40;59.50
29007;DHT22;16104;48.642;9.008;2022-10-16T21:57:20;19.40;59.50
29007;DHT22;16104;48.642;9.008;2022-10-16T22:02:15;19.40;59.50
29007;DHT22;16104;48.642;9.008;2022-10-16T22:07:11;19.40;59.50
29007;DHT22;16104;48.642;9.008;2022-10-16T22:12:06;19.30;59.50
29007;DHT22;16104;48.642;9.008;2022-10-16T22:17:02;19.30;59.60
29007;DHT22;16104;48.642;9.008;2022-10-16T22:21:57;19.30;59.70
29007;DHT22;16104;48.642;9.008;2022-10-16T22:26:55;19.30;59.80
29007;DHT22;16104;48.642;9.008;2022-10-16T22:31:51;19.20;59.80
29007;DHT22;16104;48.642;9.008;2022-10-16T22:36:48;19.20;60.00
29007;DHT22;16104;48.642;9.008;2022-10-16T22:41:44;19.20;60.10
29007;DHT22;16104;48.642;9.008;2022-10-16T22:46:40;19.10;60.10
29007;DHT22;16104;48.642;9.008;2022-10-16T22:51:35;19.10;60.30
29007;DHT22;16104;48.642;9.008;2022-10-16T22:56:31;19.10;60.20
29007;DHT22;16104;48.642;9.008;2022-10-16T23:01:30;19.00;60.20
29007;DHT22;16104;48.642;9.008;2022-10-16T23:06:26;19.00;60.40
29007;DHT22;16104;48.642;9.008;2022-10-16T23:11:22;19.00;60.40
29007;DHT22;16104;48.642;9.008;2022-10-16T23:16:20;19.00;60.40
29007;DHT22;16104;48.642;9.008;2022-10-16T23:21:18;18.90;60.50
29007;DHT22;16104;48.642;9.008;2022-10-16T23:26:18;18.90;60.40
29007;DHT22;16104;48.642;9.008;2022-10-16T23:31:15;18.90;60.50
29007;DHT22;16104;48.642;9.008;2022-10-16T23:36:13;18.80;60.40
29007;DHT22;16104;48.642;9.008;2022-10-16T23:41:10;18.80;60.60
29007;DHT22;16104;48.642;9.008;2022-10-16T23:46:07;18.70;60.50
29007;DHT22;16104;48.642;9.008;2022-10-16T23:51:04;18.70;60.70
29007;DHT22;16104;48.642;9.008;2022-10-16T23:56:00;18.60;60.70
